CEB451 RPLL-PGUM
Flight info
| Callsign | CEB451 |
|---|---|
| Flight time | 3h 21m |
| Altitude | 33000 |
| Route | JOM2R JOM DCT 16N130E/N0474F350 DCT LEETA M501 MOGLE |
| Aircraft | B738/M-SDE2E3FGHIRWXY/LB1 |
Departure
| Time | 2026-04-13 15:41 |
|---|---|
| Airport | Ninoy Aquino International Airport (RPLL) |
Arrival
| Time | 2026-04-13 19:03 |
|---|---|
| Airport | Antonio B. Won Pat International Airport (PGUM) |
| Time | Latitude | Longitude | Altitude | Speed | Heading |
|---|---|---|---|---|---|
| 2026-04-13 15:21 | 14.50575 | 121.00578 | 68 ft | 0 kts | 191° |
| 2026-04-13 15:23 | 14.50576 | 121.00578 | 68 ft | 2 kts | 191° |
| 2026-04-13 15:24 | 14.50586 | 121.00580 | 60 ft | 2 kts | 191° |
| 2026-04-13 15:24 | 14.50603 | 121.00584 | 61 ft | 2 kts | 192° |
| 2026-04-13 15:24 | 14.50619 | 121.00587 | 63 ft | 2 kts | 193° |
| 2026-04-13 15:24 | 14.50634 | 121.00592 | 61 ft | 2 kts | 208° |
| 2026-04-13 15:25 | 14.50649 | 121.00600 | 66 ft | 2 kts | 186° |
| 2026-04-13 15:25 | 14.50665 | 121.00597 | 58 ft | 2 kts | 144° |
| 2026-04-13 15:25 | 14.50667 | 121.00582 | 58 ft | 2 kts | 66° |
| 2026-04-13 15:25 | 14.50664 | 121.00575 | 58 ft | 0 kts | 65° |
| 2026-04-13 15:36 | 14.50669 | 121.00589 | 64 ft | 5 kts | 73° |
| 2026-04-13 15:36 | 14.50668 | 121.00646 | 62 ft | 11 kts | 106° |
| 2026-04-13 15:36 | 14.50639 | 121.00723 | 63 ft | 12 kts | 114° |
| 2026-04-13 15:37 | 14.50582 | 121.00782 | 68 ft | 12 kts | 149° |
| 2026-04-13 15:37 | 14.50514 | 121.00823 | 68 ft | 11 kts | 152° |
| 2026-04-13 15:37 | 14.50439 | 121.00821 | 67 ft | 11 kts | 197° |
| 2026-04-13 15:37 | 14.50372 | 121.00783 | 59 ft | 11 kts | 233° |
| 2026-04-13 15:38 | 14.50333 | 121.00716 | 67 ft | 11 kts | 240° |
| 2026-04-13 15:38 | 14.50297 | 121.00650 | 59 ft | 10 kts | 240° |
| 2026-04-13 15:38 | 14.50261 | 121.00586 | 67 ft | 10 kts | 240° |
| 2026-04-13 15:38 | 14.50222 | 121.00516 | 66 ft | 14 kts | 240° |
| 2026-04-13 15:39 | 14.50167 | 121.00416 | 61 ft | 16 kts | 240° |
| 2026-04-13 15:39 | 14.50111 | 121.00316 | 60 ft | 16 kts | 239° |
| 2026-04-13 15:39 | 14.50057 | 121.00220 | 65 ft | 15 kts | 239° |
| 2026-04-13 15:39 | 14.50005 | 121.00127 | 62 ft | 15 kts | 241° |
| 2026-04-13 15:40 | 14.49957 | 121.00040 | 64 ft | 14 kts | 240° |
| 2026-04-13 15:40 | 14.49897 | 120.99968 | 66 ft | 13 kts | 193° |
| 2026-04-13 15:40 | 14.49811 | 121.00027 | 66 ft | 18 kts | 95° |
| 2026-04-13 15:40 | 14.49903 | 121.00220 | 61 ft | 59 kts | 60° |
| 2026-04-13 15:41 | 14.50224 | 121.00798 | 66 ft | 126 kts | 60° |
| 2026-04-13 15:41 | 14.50744 | 121.01763 | 98 ft | 178 kts | 62° |
| 2026-04-13 15:41 | 14.51404 | 121.02960 | 450 ft | 206 kts | 61° |
| 2026-04-13 15:41 | 14.52180 | 121.04328 | 744 ft | 232 kts | 61° |
| 2026-04-13 15:42 | 14.52982 | 121.05771 | 1556 ft | 223 kts | 60° |
| 2026-04-13 15:42 | 14.53734 | 121.07122 | 2382 ft | 216 kts | 60° |
| 2026-04-13 15:42 | 14.54510 | 121.08523 | 2581 ft | 233 kts | 60° |
| 2026-04-13 15:42 | 14.55334 | 121.10008 | 2922 ft | 242 kts | 60° |
| 2026-04-13 15:43 | 14.56188 | 121.11544 | 3142 ft | 260 kts | 61° |
| 2026-04-13 15:43 | 14.56776 | 121.13335 | 3640 ft | 267 kts | 79° |
| 2026-04-13 15:43 | 14.57030 | 121.15237 | 4313 ft | 268 kts | 84° |
| 2026-04-13 15:43 | 14.57217 | 121.17163 | 4947 ft | 271 kts | 84° |
| 2026-04-13 15:44 | 14.57399 | 121.19109 | 5613 ft | 272 kts | 84° |
| 2026-04-13 15:44 | 14.57590 | 121.21056 | 6283 ft | 274 kts | 84° |
| 2026-04-13 15:44 | 14.57792 | 121.23021 | 6876 ft | 277 kts | 83° |
| 2026-04-13 15:44 | 14.58005 | 121.25000 | 7470 ft | 279 kts | 83° |
| 2026-04-13 15:45 | 14.58225 | 121.26992 | 8079 ft | 281 kts | 83° |
| 2026-04-13 15:45 | 14.58452 | 121.28998 | 8698 ft | 282 kts | 82° |
| 2026-04-13 15:45 | 14.58680 | 121.30991 | 9285 ft | 284 kts | 82° |
| 2026-04-13 15:45 | 14.58915 | 121.33024 | 9867 ft | 286 kts | 82° |
| 2026-04-13 15:46 | 14.59154 | 121.35074 | 10324 ft | 293 kts | 82° |
| 2026-04-13 15:46 | 14.59408 | 121.37234 | 10446 ft | 312 kts | 82° |
| 2026-04-13 15:46 | 14.59676 | 121.39517 | 10571 ft | 329 kts | 82° |
| 2026-04-13 15:46 | 14.59959 | 121.41923 | 10691 ft | 345 kts | 82° |
| 2026-04-13 15:47 | 14.60254 | 121.44436 | 10801 ft | 360 kts | 82° |
| 2026-04-13 15:47 | 14.60563 | 121.47057 | 10900 ft | 374 kts | 82° |
| 2026-04-13 15:47 | 14.60879 | 121.49753 | 11123 ft | 382 kts | 82° |
| 2026-04-13 15:47 | 14.61196 | 121.52461 | 11470 ft | 386 kts | 82° |
| 2026-04-13 15:48 | 14.61518 | 121.55218 | 11881 ft | 389 kts | 82° |
| 2026-04-13 15:48 | 14.61844 | 121.58001 | 12274 ft | 392 kts | 82° |
| 2026-04-13 15:48 | 14.62171 | 121.60802 | 12651 ft | 395 kts | 82° |
| 2026-04-13 15:48 | 14.62502 | 121.63635 | 13018 ft | 399 kts | 82° |
| 2026-04-13 15:49 | 14.62835 | 121.66485 | 13395 ft | 402 kts | 82° |
| 2026-04-13 15:49 | 14.63171 | 121.69365 | 13759 ft | 405 kts | 82° |
| 2026-04-13 15:49 | 14.63508 | 121.72262 | 14105 ft | 408 kts | 82° |
| 2026-04-13 15:49 | 14.63847 | 121.75174 | 14514 ft | 408 kts | 82° |
| 2026-04-13 15:50 | 14.64181 | 121.78048 | 14907 ft | 410 kts | 82° |
| 2026-04-13 15:50 | 14.64521 | 121.80971 | 15275 ft | 411 kts | 82° |
| 2026-04-13 15:50 | 14.64862 | 121.83916 | 15647 ft | 414 kts | 82° |
| 2026-04-13 15:50 | 14.65205 | 121.86874 | 16018 ft | 415 kts | 82° |
| 2026-04-13 15:51 | 14.65548 | 121.89837 | 16391 ft | 417 kts | 82° |
| 2026-04-13 15:51 | 14.65892 | 121.92812 | 16750 ft | 419 kts | 82° |
| 2026-04-13 15:51 | 14.66238 | 121.95809 | 17100 ft | 421 kts | 82° |
| 2026-04-13 15:51 | 14.66585 | 121.98813 | 17447 ft | 423 kts | 82° |
| 2026-04-13 15:52 | 14.66933 | 122.01834 | 17800 ft | 424 kts | 82° |
| 2026-04-13 15:52 | 14.67278 | 122.04830 | 18130 ft | 426 kts | 82° |
| 2026-04-13 15:52 | 14.67628 | 122.07875 | 18434 ft | 428 kts | 82° |
| 2026-04-13 15:52 | 14.67979 | 122.10937 | 18732 ft | 430 kts | 82° |
| 2026-04-13 15:53 | 14.68331 | 122.14002 | 19018 ft | 431 kts | 82° |
| 2026-04-13 15:53 | 14.68684 | 122.17083 | 19299 ft | 433 kts | 82° |
| 2026-04-13 15:53 | 14.69038 | 122.20178 | 19583 ft | 434 kts | 82° |
| 2026-04-13 15:53 | 14.69392 | 122.23277 | 19851 ft | 436 kts | 82° |
| 2026-04-13 15:54 | 14.69748 | 122.26395 | 20117 ft | 438 kts | 82° |
| 2026-04-13 15:54 | 14.70104 | 122.29516 | 20394 ft | 439 kts | 82° |
| 2026-04-13 15:54 | 14.70463 | 122.32652 | 20662 ft | 440 kts | 82° |
| 2026-04-13 15:54 | 14.70917 | 122.35734 | 20909 ft | 441 kts | 79° |
| 2026-04-13 15:55 | 14.71475 | 122.38851 | 21154 ft | 442 kts | 78° |
| 2026-04-13 15:55 | 14.72078 | 122.41975 | 21411 ft | 444 kts | 77° |
| 2026-04-13 15:55 | 14.72692 | 122.45100 | 21654 ft | 445 kts | 77° |
| 2026-04-13 15:55 | 14.73306 | 122.48243 | 21885 ft | 447 kts | 77° |
| 2026-04-13 15:56 | 14.73912 | 122.51393 | 22113 ft | 448 kts | 78° |
| 2026-04-13 15:56 | 14.74514 | 122.54561 | 22340 ft | 450 kts | 78° |
| 2026-04-13 15:56 | 14.75110 | 122.57735 | 22556 ft | 451 kts | 78° |
| 2026-04-13 15:56 | 14.75705 | 122.60929 | 22770 ft | 453 kts | 78° |
| 2026-04-13 15:57 | 14.76298 | 122.64125 | 22982 ft | 454 kts | 78° |
| 2026-04-13 15:57 | 14.76885 | 122.67295 | 23193 ft | 456 kts | 78° |
| 2026-04-13 15:57 | 14.77480 | 122.70511 | 23386 ft | 457 kts | 78° |
| 2026-04-13 15:57 | 14.78078 | 122.73745 | 23571 ft | 459 kts | 78° |
| 2026-04-13 15:58 | 14.78676 | 122.76982 | 23738 ft | 460 kts | 78° |
| 2026-04-13 15:58 | 14.79276 | 122.80233 | 23898 ft | 461 kts | 78° |
| 2026-04-13 15:58 | 14.79876 | 122.83485 | 24060 ft | 462 kts | 78° |
| 2026-04-13 15:58 | 14.80479 | 122.86752 | 24225 ft | 463 kts | 78° |
| 2026-04-13 15:59 | 14.81072 | 122.89974 | 24390 ft | 464 kts | 78° |
| 2026-04-13 15:59 | 14.81675 | 122.93247 | 24538 ft | 465 kts | 78° |
| 2026-04-13 15:59 | 14.82280 | 122.96536 | 24700 ft | 466 kts | 78° |
| 2026-04-13 15:59 | 14.82884 | 122.99822 | 24868 ft | 466 kts | 78° |
| 2026-04-13 16:00 | 14.83490 | 123.03120 | 25028 ft | 467 kts | 78° |
| 2026-04-13 16:00 | 14.84095 | 123.06418 | 25171 ft | 468 kts | 78° |
| 2026-04-13 16:00 | 14.84703 | 123.09731 | 25308 ft | 469 kts | 78° |
| 2026-04-13 16:00 | 14.85311 | 123.13048 | 25442 ft | 470 kts | 78° |
| 2026-04-13 16:01 | 14.85911 | 123.16325 | 25573 ft | 471 kts | 78° |
| 2026-04-13 16:01 | 14.86521 | 123.19661 | 25712 ft | 472 kts | 78° |
| 2026-04-13 16:01 | 14.87130 | 123.22994 | 25867 ft | 473 kts | 78° |
| 2026-04-13 16:01 | 14.87740 | 123.26336 | 26005 ft | 474 kts | 78° |
| 2026-04-13 16:02 | 14.88352 | 123.29689 | 26136 ft | 475 kts | 78° |
| 2026-04-13 16:02 | 14.88963 | 123.33042 | 26252 ft | 476 kts | 78° |
| 2026-04-13 16:02 | 14.89576 | 123.36410 | 26394 ft | 476 kts | 78° |
| 2026-04-13 16:02 | 14.90189 | 123.39775 | 26511 ft | 477 kts | 78° |
| 2026-04-13 16:03 | 14.90795 | 123.43109 | 26648 ft | 478 kts | 78° |
| 2026-04-13 16:03 | 14.91408 | 123.46487 | 26741 ft | 479 kts | 78° |
| 2026-04-13 16:03 | 14.92025 | 123.49882 | 26875 ft | 480 kts | 78° |
| 2026-04-13 16:03 | 14.92639 | 123.53267 | 27052 ft | 479 kts | 78° |
| 2026-04-13 16:04 | 14.93251 | 123.56648 | 27221 ft | 479 kts | 79° |
| 2026-04-13 16:04 | 14.93863 | 123.60029 | 27462 ft | 477 kts | 79° |
| 2026-04-13 16:04 | 14.94471 | 123.63389 | 27703 ft | 475 kts | 79° |
| 2026-04-13 16:04 | 14.95079 | 123.66754 | 27860 ft | 476 kts | 79° |
| 2026-04-13 16:05 | 14.95687 | 123.70118 | 27988 ft | 477 kts | 79° |
| 2026-04-13 16:05 | 14.96296 | 123.73495 | 28147 ft | 477 kts | 79° |
| 2026-04-13 16:05 | 14.96902 | 123.76860 | 28355 ft | 476 kts | 79° |
| 2026-04-13 16:05 | 14.97502 | 123.80188 | 28519 ft | 477 kts | 79° |
| 2026-04-13 16:06 | 14.98107 | 123.83552 | 28727 ft | 476 kts | 79° |
| 2026-04-13 16:06 | 14.98713 | 123.86922 | 28907 ft | 476 kts | 79° |
| 2026-04-13 16:06 | 14.99317 | 123.90284 | 29087 ft | 476 kts | 79° |
| 2026-04-13 16:06 | 14.99921 | 123.93652 | 29308 ft | 475 kts | 79° |
| 2026-04-13 16:07 | 15.00523 | 123.97005 | 29525 ft | 474 kts | 79° |
| 2026-04-13 16:07 | 15.01124 | 124.00362 | 29752 ft | 474 kts | 79° |
| 2026-04-13 16:07 | 15.01723 | 124.03710 | 29937 ft | 474 kts | 79° |
| 2026-04-13 16:07 | 15.02317 | 124.07027 | 30070 ft | 475 kts | 79° |
| 2026-04-13 16:08 | 15.02917 | 124.10385 | 30227 ft | 475 kts | 79° |
| 2026-04-13 16:08 | 15.03517 | 124.13747 | 30439 ft | 474 kts | 79° |
| 2026-04-13 16:08 | 15.04113 | 124.17087 | 30670 ft | 472 kts | 79° |
| 2026-04-13 16:08 | 15.04708 | 124.20427 | 30865 ft | 471 kts | 80° |
| 2026-04-13 16:09 | 15.05301 | 124.23754 | 31061 ft | 471 kts | 80° |
| 2026-04-13 16:09 | 15.05894 | 124.27086 | 31244 ft | 470 kts | 79° |
| 2026-04-13 16:09 | 15.06484 | 124.30408 | 31421 ft | 470 kts | 80° |
| 2026-04-13 16:09 | 15.07074 | 124.33729 | 31610 ft | 469 kts | 79° |
| 2026-04-13 16:10 | 15.07654 | 124.36997 | 31890 ft | 466 kts | 80° |
| 2026-04-13 16:10 | 15.08236 | 124.40283 | 32165 ft | 464 kts | 80° |
| 2026-04-13 16:10 | 15.08818 | 124.43564 | 32389 ft | 463 kts | 80° |
| 2026-04-13 16:10 | 15.09397 | 124.46835 | 32567 ft | 463 kts | 80° |
| 2026-04-13 16:11 | 15.09977 | 124.50115 | 32715 ft | 463 kts | 80° |
| 2026-04-13 16:11 | 15.10555 | 124.53388 | 32876 ft | 461 kts | 80° |
| 2026-04-13 16:11 | 15.11703 | 124.59895 | 32961 ft | 460 kts | 80° |
| 2026-04-13 16:12 | 15.12851 | 124.66410 | 32979 ft | 461 kts | 80° |
| 2026-04-13 16:12 | 15.13995 | 124.72919 | 32977 ft | 465 kts | 80° |
| 2026-04-13 16:13 | 15.15153 | 124.79517 | 32974 ft | 467 kts | 80° |
| 2026-04-13 16:13 | 15.16314 | 124.86143 | 32973 ft | 469 kts | 80° |
| 2026-04-13 16:14 | 15.17477 | 124.92789 | 32973 ft | 469 kts | 80° |
| 2026-04-13 16:14 | 15.18629 | 124.99390 | 32968 ft | 469 kts | 80° |
| 2026-04-13 16:15 | 15.19786 | 125.06025 | 32967 ft | 468 kts | 80° |
| 2026-04-13 16:15 | 15.20938 | 125.12648 | 32974 ft | 467 kts | 80° |
| 2026-04-13 16:16 | 15.22085 | 125.19251 | 32971 ft | 465 kts | 80° |
| 2026-04-13 16:16 | 15.23218 | 125.25790 | 32972 ft | 464 kts | 80° |
| 2026-04-13 16:17 | 15.24356 | 125.32364 | 32975 ft | 463 kts | 80° |
| 2026-04-13 16:17 | 15.25489 | 125.38924 | 32967 ft | 463 kts | 80° |
| 2026-04-13 16:18 | 15.26620 | 125.45483 | 32971 ft | 463 kts | 80° |
| 2026-04-13 16:18 | 15.27742 | 125.52005 | 32969 ft | 463 kts | 80° |
| 2026-04-13 16:19 | 15.28869 | 125.58560 | 32973 ft | 463 kts | 80° |
| 2026-04-13 16:19 | 15.29996 | 125.65135 | 32973 ft | 464 kts | 80° |
| 2026-04-13 16:20 | 15.31123 | 125.71715 | 32974 ft | 464 kts | 80° |
| 2026-04-13 16:20 | 15.32249 | 125.78304 | 32971 ft | 465 kts | 80° |
| 2026-04-13 16:21 | 15.33367 | 125.84858 | 32969 ft | 465 kts | 80° |
| 2026-04-13 16:21 | 15.34491 | 125.91463 | 32970 ft | 466 kts | 80° |
| 2026-04-13 16:22 | 15.35615 | 125.98073 | 32970 ft | 466 kts | 80° |
| 2026-04-13 16:23 | 15.37288 | 126.07944 | 32967 ft | 466 kts | 80° |
| 2026-04-13 16:23 | 15.38406 | 126.14553 | 32966 ft | 465 kts | 80° |
| 2026-04-13 16:24 | 15.39521 | 126.21153 | 32968 ft | 465 kts | 80° |
| 2026-04-13 16:24 | 15.40633 | 126.27749 | 32975 ft | 464 kts | 80° |
| 2026-04-13 16:25 | 15.41742 | 126.34343 | 32969 ft | 464 kts | 80° |
| 2026-04-13 16:25 | 15.42841 | 126.40892 | 32970 ft | 464 kts | 80° |
| 2026-04-13 16:26 | 15.43945 | 126.47479 | 32969 ft | 464 kts | 81° |
| 2026-04-13 16:26 | 15.45046 | 126.54059 | 32969 ft | 464 kts | 81° |
| 2026-04-13 16:27 | 15.46146 | 126.60646 | 32966 ft | 464 kts | 81° |
| 2026-04-13 16:27 | 15.47237 | 126.67191 | 32968 ft | 464 kts | 81° |
| 2026-04-13 16:28 | 15.48335 | 126.73790 | 32969 ft | 464 kts | 81° |
| 2026-04-13 16:28 | 15.49429 | 126.80379 | 32967 ft | 464 kts | 81° |
| 2026-04-13 16:29 | 15.50523 | 126.86980 | 32963 ft | 465 kts | 81° |
| 2026-04-13 16:29 | 15.51615 | 126.93585 | 32965 ft | 465 kts | 81° |
| 2026-04-13 16:30 | 15.52699 | 127.00149 | 32968 ft | 465 kts | 81° |
| 2026-04-13 16:30 | 15.53788 | 127.06759 | 32968 ft | 465 kts | 81° |
| 2026-04-13 16:31 | 15.54876 | 127.13371 | 32967 ft | 465 kts | 81° |
| 2026-04-13 16:31 | 15.55961 | 127.19984 | 32965 ft | 465 kts | 81° |
| 2026-04-13 16:32 | 15.57038 | 127.26553 | 32965 ft | 465 kts | 81° |
| 2026-04-13 16:32 | 15.58119 | 127.33165 | 32964 ft | 465 kts | 81° |
| 2026-04-13 16:33 | 15.59198 | 127.39775 | 32963 ft | 465 kts | 81° |
| 2026-04-13 16:33 | 15.60274 | 127.46383 | 32969 ft | 464 kts | 81° |
| 2026-04-13 16:34 | 15.61348 | 127.52988 | 32962 ft | 464 kts | 81° |
| 2026-04-13 16:34 | 15.62412 | 127.59545 | 32963 ft | 464 kts | 81° |
| 2026-04-13 16:35 | 15.63480 | 127.66142 | 32962 ft | 464 kts | 81° |
| 2026-04-13 16:35 | 15.64546 | 127.72738 | 32963 ft | 463 kts | 81° |
| 2026-04-13 16:36 | 15.65609 | 127.79327 | 32962 ft | 463 kts | 81° |
| 2026-04-13 16:36 | 15.66663 | 127.85875 | 32963 ft | 463 kts | 81° |
| 2026-04-13 16:37 | 15.67722 | 127.92466 | 32963 ft | 463 kts | 81° |
| 2026-04-13 16:37 | 15.68779 | 127.99058 | 32965 ft | 463 kts | 81° |
| 2026-04-13 16:38 | 15.69834 | 128.05651 | 32962 ft | 463 kts | 81° |
| 2026-04-13 16:38 | 15.70881 | 128.12200 | 32960 ft | 463 kts | 81° |
| 2026-04-13 16:39 | 15.71932 | 128.18793 | 32959 ft | 463 kts | 81° |
| 2026-04-13 16:39 | 15.72981 | 128.25388 | 32958 ft | 463 kts | 81° |
| 2026-04-13 16:40 | 15.74029 | 128.31986 | 32953 ft | 463 kts | 81° |
| 2026-04-13 16:40 | 15.75068 | 128.38542 | 32957 ft | 463 kts | 81° |
| 2026-04-13 16:41 | 15.76111 | 128.45140 | 32955 ft | 463 kts | 81° |
| 2026-04-13 16:41 | 15.77154 | 128.51744 | 32955 ft | 464 kts | 81° |
| 2026-04-13 16:42 | 15.78194 | 128.58351 | 32953 ft | 464 kts | 81° |
| 2026-04-13 16:42 | 15.79226 | 128.64915 | 32955 ft | 464 kts | 81° |
| 2026-04-13 16:43 | 15.80263 | 128.71523 | 32953 ft | 464 kts | 81° |
| 2026-04-13 16:43 | 15.81298 | 128.78131 | 32952 ft | 464 kts | 81° |
| 2026-04-13 16:44 | 15.82330 | 128.84741 | 32955 ft | 464 kts | 81° |
| 2026-04-13 16:44 | 15.83354 | 128.91307 | 32953 ft | 464 kts | 81° |
| 2026-04-13 16:45 | 15.84382 | 128.97912 | 32950 ft | 464 kts | 82° |
| 2026-04-13 16:45 | 15.85410 | 129.04533 | 32953 ft | 464 kts | 82° |
| 2026-04-13 16:46 | 15.86434 | 129.11139 | 32949 ft | 464 kts | 82° |
| 2026-04-13 16:46 | 15.87451 | 129.17716 | 32948 ft | 464 kts | 81° |
| 2026-04-13 16:47 | 15.88472 | 129.24325 | 32950 ft | 463 kts | 82° |
| 2026-04-13 16:47 | 15.89489 | 129.30936 | 32946 ft | 463 kts | 82° |
| 2026-04-13 16:48 | 15.90505 | 129.37547 | 32950 ft | 464 kts | 82° |
| 2026-04-13 16:48 | 15.91521 | 129.44169 | 32946 ft | 464 kts | 82° |
| 2026-04-13 16:49 | 15.92528 | 129.50746 | 32944 ft | 464 kts | 82° |
| 2026-04-13 16:49 | 15.93536 | 129.57345 | 32940 ft | 462 kts | 82° |
| 2026-04-13 16:50 | 15.94540 | 129.63930 | 32938 ft | 461 kts | 82° |
| 2026-04-13 16:50 | 15.95538 | 129.70495 | 32942 ft | 459 kts | 82° |
| 2026-04-13 16:51 | 15.96527 | 129.77012 | 32945 ft | 460 kts | 82° |
| 2026-04-13 16:51 | 15.97523 | 129.83591 | 32950 ft | 463 kts | 82° |
| 2026-04-13 16:52 | 15.98527 | 129.90229 | 32945 ft | 466 kts | 82° |
| 2026-04-13 16:52 | 15.99534 | 129.96898 | 32942 ft | 468 kts | 82° |
| 2026-04-13 16:53 | 16.00076 | 130.03617 | 32949 ft | 466 kts | 91° |
| 2026-04-13 16:53 | 15.99983 | 130.10279 | 32937 ft | 462 kts | 91° |
| 2026-04-13 16:54 | 15.99864 | 130.16916 | 32933 ft | 457 kts | 91° |
| 2026-04-13 16:54 | 15.99774 | 130.23496 | 32934 ft | 453 kts | 91° |
| 2026-04-13 16:55 | 15.99703 | 130.30042 | 32947 ft | 455 kts | 91° |
| 2026-04-13 16:55 | 15.99635 | 130.36587 | 32936 ft | 456 kts | 91° |
| 2026-04-13 16:56 | 15.99564 | 130.43156 | 32928 ft | 454 kts | 91° |
| 2026-04-13 16:56 | 15.99491 | 130.49705 | 32935 ft | 453 kts | 91° |
| 2026-04-13 16:57 | 15.99415 | 130.56268 | 32939 ft | 455 kts | 91° |
| 2026-04-13 16:57 | 15.99339 | 130.62792 | 32931 ft | 455 kts | 91° |
| 2026-04-13 16:58 | 15.99259 | 130.69368 | 32925 ft | 454 kts | 91° |
| 2026-04-13 16:58 | 15.99177 | 130.75945 | 32932 ft | 456 kts | 91° |
| 2026-04-13 16:59 | 15.99093 | 130.82539 | 32931 ft | 457 kts | 91° |
| 2026-04-13 16:59 | 15.99008 | 130.89087 | 32929 ft | 457 kts | 91° |
| 2026-04-13 17:00 | 15.98920 | 130.95687 | 32918 ft | 456 kts | 91° |
| 2026-04-13 17:00 | 15.98831 | 131.02262 | 32926 ft | 455 kts | 91° |
| 2026-04-13 17:01 | 15.98740 | 131.08813 | 32931 ft | 458 kts | 91° |
| 2026-04-13 17:01 | 15.98645 | 131.15440 | 32923 ft | 459 kts | 91° |
| 2026-04-13 17:02 | 15.98548 | 131.22086 | 32928 ft | 461 kts | 91° |
| 2026-04-13 17:02 | 15.98449 | 131.28760 | 32924 ft | 463 kts | 91° |
| 2026-04-13 17:03 | 15.98347 | 131.35473 | 32925 ft | 466 kts | 91° |
| 2026-04-13 17:03 | 15.98243 | 131.42190 | 32922 ft | 469 kts | 91° |
| 2026-04-13 17:04 | 15.98136 | 131.48969 | 32913 ft | 468 kts | 91° |
| 2026-04-13 17:04 | 15.98028 | 131.55713 | 32910 ft | 465 kts | 91° |
| 2026-04-13 17:05 | 15.97918 | 131.62420 | 32913 ft | 463 kts | 91° |
| 2026-04-13 17:05 | 15.97807 | 131.69057 | 32916 ft | 462 kts | 91° |
| 2026-04-13 17:06 | 15.97694 | 131.75732 | 32913 ft | 462 kts | 91° |
| 2026-04-13 17:06 | 15.97578 | 131.82412 | 32920 ft | 463 kts | 91° |
| 2026-04-13 17:07 | 15.97460 | 131.89121 | 32917 ft | 466 kts | 91° |
| 2026-04-13 17:07 | 15.97339 | 131.95834 | 32919 ft | 470 kts | 91° |
| 2026-04-13 17:08 | 15.97215 | 132.02636 | 32914 ft | 472 kts | 91° |
| 2026-04-13 17:08 | 15.97087 | 132.09469 | 32911 ft | 474 kts | 91° |
| 2026-04-13 17:09 | 15.96958 | 132.16317 | 32907 ft | 475 kts | 91° |
| 2026-04-13 17:09 | 15.96828 | 132.23129 | 32911 ft | 475 kts | 91° |
| 2026-04-13 17:10 | 15.96694 | 132.29982 | 32906 ft | 474 kts | 91° |
| 2026-04-13 17:10 | 15.96558 | 132.36825 | 32906 ft | 473 kts | 91° |
| 2026-04-13 17:11 | 15.96421 | 132.43656 | 32903 ft | 472 kts | 91° |
| 2026-04-13 17:11 | 15.96282 | 132.50430 | 32902 ft | 472 kts | 91° |
| 2026-04-13 17:12 | 15.96140 | 132.57237 | 32899 ft | 471 kts | 91° |
| 2026-04-13 17:12 | 15.95997 | 132.64035 | 32901 ft | 470 kts | 91° |
| 2026-04-13 17:13 | 15.95852 | 132.70819 | 32902 ft | 470 kts | 91° |
| 2026-04-13 17:13 | 15.95705 | 132.77562 | 32897 ft | 470 kts | 92° |
| 2026-04-13 17:14 | 15.95555 | 132.84352 | 32899 ft | 470 kts | 91° |
| 2026-04-13 17:14 | 15.95403 | 132.91154 | 32895 ft | 471 kts | 91° |
| 2026-04-13 17:15 | 15.95249 | 132.97949 | 32898 ft | 471 kts | 91° |
| 2026-04-13 17:15 | 15.95094 | 133.04714 | 32895 ft | 472 kts | 91° |
| 2026-04-13 17:16 | 15.94935 | 133.11532 | 32893 ft | 472 kts | 92° |
| 2026-04-13 17:16 | 15.94774 | 133.18355 | 32894 ft | 473 kts | 91° |
| 2026-04-13 17:17 | 15.94611 | 133.25184 | 32893 ft | 473 kts | 91° |
| 2026-04-13 17:17 | 15.94446 | 133.31971 | 32889 ft | 473 kts | 92° |
| 2026-04-13 17:18 | 15.94278 | 133.38808 | 32890 ft | 473 kts | 91° |
| 2026-04-13 17:18 | 15.94108 | 133.45646 | 32886 ft | 473 kts | 92° |
| 2026-04-13 17:19 | 15.93936 | 133.52486 | 32886 ft | 474 kts | 92° |
| 2026-04-13 17:19 | 15.93763 | 133.59282 | 32886 ft | 474 kts | 91° |
| 2026-04-13 17:20 | 15.93586 | 133.66125 | 32887 ft | 474 kts | 91° |
| 2026-04-13 17:20 | 15.93408 | 133.72967 | 32884 ft | 474 kts | 91° |
| 2026-04-13 17:21 | 15.93227 | 133.79809 | 32890 ft | 474 kts | 91° |
| 2026-04-13 17:21 | 15.93044 | 133.86648 | 32881 ft | 473 kts | 91° |
| 2026-04-13 17:22 | 15.92860 | 133.93431 | 32883 ft | 473 kts | 91° |
| 2026-04-13 17:22 | 15.92673 | 134.00263 | 32883 ft | 473 kts | 91° |
| 2026-04-13 17:23 | 15.92484 | 134.07095 | 32878 ft | 473 kts | 91° |
| 2026-04-13 17:23 | 15.92293 | 134.13924 | 32879 ft | 473 kts | 91° |
| 2026-04-13 17:24 | 15.92101 | 134.20704 | 32880 ft | 473 kts | 91° |
| 2026-04-13 17:24 | 15.91905 | 134.27530 | 32879 ft | 472 kts | 91° |
| 2026-04-13 17:25 | 15.91708 | 134.34353 | 32879 ft | 472 kts | 91° |
| 2026-04-13 17:25 | 15.91508 | 134.41167 | 32878 ft | 472 kts | 91° |
| 2026-04-13 17:26 | 15.91306 | 134.47987 | 32877 ft | 472 kts | 91° |
| 2026-04-13 17:26 | 15.91104 | 134.54762 | 32878 ft | 472 kts | 91° |
| 2026-04-13 17:27 | 15.90794 | 134.64992 | 32877 ft | 473 kts | 91° |
| 2026-04-13 17:27 | 15.90585 | 134.71816 | 32876 ft | 473 kts | 91° |
| 2026-04-13 17:28 | 15.90374 | 134.78642 | 32872 ft | 473 kts | 91° |
| 2026-04-13 17:28 | 15.90162 | 134.85423 | 32872 ft | 473 kts | 91° |
| 2026-04-13 17:29 | 15.89946 | 134.92254 | 32866 ft | 473 kts | 91° |
| 2026-04-13 17:29 | 15.89727 | 134.99077 | 32869 ft | 473 kts | 92° |
| 2026-04-13 17:30 | 15.88900 | 135.05852 | 32871 ft | 473 kts | 99° |
| 2026-04-13 17:30 | 15.87710 | 135.12570 | 32862 ft | 473 kts | 100° |
| 2026-04-13 17:31 | 15.86517 | 135.19293 | 32864 ft | 473 kts | 99° |
| 2026-04-13 17:31 | 15.85377 | 135.25973 | 32863 ft | 473 kts | 99° |
| 2026-04-13 17:32 | 15.84251 | 135.32701 | 32864 ft | 473 kts | 99° |
| 2026-04-13 17:32 | 15.83128 | 135.39437 | 32861 ft | 473 kts | 99° |
| 2026-04-13 17:33 | 15.82003 | 135.46166 | 32858 ft | 473 kts | 99° |
| 2026-04-13 17:33 | 15.80873 | 135.52901 | 32861 ft | 473 kts | 99° |
| 2026-04-13 17:34 | 15.79181 | 135.62951 | 32861 ft | 473 kts | 99° |
| 2026-04-13 17:35 | 15.78045 | 135.69684 | 32859 ft | 474 kts | 99° |
| 2026-04-13 17:35 | 15.76907 | 135.76418 | 32858 ft | 474 kts | 99° |
| 2026-04-13 17:36 | 15.75766 | 135.83153 | 32859 ft | 474 kts | 99° |
| 2026-04-13 17:36 | 15.74631 | 135.89846 | 32857 ft | 474 kts | 99° |
| 2026-04-13 17:37 | 15.73485 | 135.96585 | 32855 ft | 474 kts | 99° |
| 2026-04-13 17:37 | 15.72337 | 136.03324 | 32852 ft | 474 kts | 99° |
| 2026-04-13 17:38 | 15.71187 | 136.10064 | 32851 ft | 474 kts | 99° |
| 2026-04-13 17:38 | 15.70042 | 136.16759 | 32850 ft | 474 kts | 99° |
| 2026-04-13 17:39 | 15.68888 | 136.23495 | 32849 ft | 474 kts | 99° |
| 2026-04-13 17:39 | 15.67731 | 136.30235 | 32847 ft | 474 kts | 99° |
| 2026-04-13 17:40 | 15.66573 | 136.36975 | 32843 ft | 474 kts | 99° |
| 2026-04-13 17:40 | 15.65419 | 136.43670 | 32843 ft | 475 kts | 99° |
| 2026-04-13 17:41 | 15.64256 | 136.50410 | 32844 ft | 475 kts | 99° |
| 2026-04-13 17:41 | 15.63090 | 136.57150 | 32845 ft | 475 kts | 99° |
| 2026-04-13 17:42 | 15.61922 | 136.63892 | 32843 ft | 475 kts | 99° |
| 2026-04-13 17:42 | 15.60760 | 136.70589 | 32841 ft | 475 kts | 99° |
| 2026-04-13 17:43 | 15.59587 | 136.77335 | 32844 ft | 475 kts | 99° |
| 2026-04-13 17:43 | 15.58411 | 136.84081 | 32841 ft | 475 kts | 99° |
| 2026-04-13 17:44 | 15.57233 | 136.90829 | 32837 ft | 476 kts | 99° |
| 2026-04-13 17:44 | 15.56253 | 136.96433 | 32837 ft | 476 kts | 99° |
| 2026-04-13 17:45 | 15.54878 | 137.04287 | 32840 ft | 476 kts | 99° |
| 2026-04-13 17:45 | 15.53694 | 137.11033 | 32835 ft | 476 kts | 99° |
| 2026-04-13 17:46 | 15.52707 | 137.16647 | 32833 ft | 476 kts | 99° |
| 2026-04-13 17:46 | 15.51517 | 137.23400 | 32834 ft | 476 kts | 99° |
| 2026-04-13 17:47 | 15.50326 | 137.30152 | 32836 ft | 476 kts | 99° |
| 2026-04-13 17:47 | 15.48939 | 137.37995 | 32829 ft | 476 kts | 99° |
| 2026-04-13 17:48 | 15.47744 | 137.44741 | 32831 ft | 476 kts | 99° |
| 2026-04-13 17:48 | 15.46749 | 137.50348 | 32830 ft | 476 kts | 99° |
| 2026-04-13 17:49 | 15.45551 | 137.57088 | 32830 ft | 475 kts | 99° |
| 2026-04-13 17:49 | 15.44157 | 137.64917 | 32826 ft | 475 kts | 99° |
| 2026-04-13 17:50 | 15.43159 | 137.70515 | 32828 ft | 475 kts | 99° |
| 2026-04-13 17:50 | 15.41955 | 137.77246 | 32823 ft | 475 kts | 99° |
| 2026-04-13 17:51 | 15.40751 | 137.83977 | 32823 ft | 475 kts | 99° |
| 2026-04-13 17:51 | 15.39544 | 137.90707 | 32821 ft | 475 kts | 99° |
| 2026-04-13 17:52 | 15.38343 | 137.97393 | 32819 ft | 475 kts | 99° |
| 2026-04-13 17:52 | 15.37131 | 138.04124 | 32818 ft | 475 kts | 99° |
| 2026-04-13 17:53 | 15.35920 | 138.10847 | 32815 ft | 475 kts | 99° |
| 2026-04-13 17:53 | 15.34703 | 138.17578 | 32814 ft | 475 kts | 99° |
| 2026-04-13 17:54 | 15.33486 | 138.24308 | 32810 ft | 475 kts | 99° |
| 2026-04-13 17:54 | 15.32265 | 138.31045 | 32805 ft | 475 kts | 99° |
| 2026-04-13 17:55 | 15.31052 | 138.37720 | 32806 ft | 475 kts | 99° |
| 2026-04-13 17:55 | 15.29829 | 138.44445 | 32803 ft | 475 kts | 99° |
| 2026-04-13 17:56 | 15.28604 | 138.51168 | 32805 ft | 475 kts | 99° |
| 2026-04-13 17:56 | 15.27377 | 138.57891 | 32804 ft | 475 kts | 99° |
| 2026-04-13 17:57 | 15.26158 | 138.64556 | 32800 ft | 474 kts | 99° |
| 2026-04-13 17:57 | 15.24930 | 138.71262 | 32802 ft | 474 kts | 99° |
| 2026-04-13 17:58 | 15.23698 | 138.77974 | 32794 ft | 475 kts | 99° |
| 2026-04-13 17:58 | 15.22464 | 138.84686 | 32793 ft | 475 kts | 99° |
| 2026-04-13 17:59 | 15.21225 | 138.91415 | 32792 ft | 475 kts | 99° |
| 2026-04-13 17:59 | 15.19996 | 138.98085 | 32789 ft | 475 kts | 99° |
| 2026-04-13 18:00 | 15.18755 | 139.04801 | 32789 ft | 475 kts | 99° |
| 2026-04-13 18:00 | 15.17513 | 139.11508 | 32789 ft | 474 kts | 99° |
| 2026-04-13 18:01 | 15.16272 | 139.18203 | 32776 ft | 473 kts | 99° |
| 2026-04-13 18:01 | 15.15030 | 139.24885 | 32780 ft | 472 kts | 99° |
| 2026-04-13 18:02 | 15.13798 | 139.31509 | 32787 ft | 471 kts | 99° |
| 2026-04-13 18:02 | 15.12557 | 139.38168 | 32777 ft | 471 kts | 98° |
| 2026-04-13 18:03 | 15.11316 | 139.44816 | 32775 ft | 470 kts | 99° |
| 2026-04-13 18:03 | 15.10075 | 139.51452 | 32771 ft | 469 kts | 98° |
| 2026-04-13 18:04 | 15.08843 | 139.58033 | 32774 ft | 469 kts | 98° |
| 2026-04-13 18:04 | 15.07604 | 139.64648 | 32769 ft | 468 kts | 99° |
| 2026-04-13 18:05 | 15.06362 | 139.71253 | 32778 ft | 467 kts | 98° |
| 2026-04-13 18:05 | 15.05119 | 139.77851 | 32769 ft | 467 kts | 98° |
| 2026-04-13 18:06 | 15.03885 | 139.84394 | 32765 ft | 466 kts | 99° |
| 2026-04-13 18:06 | 15.02643 | 139.90978 | 32766 ft | 466 kts | 98° |
| 2026-04-13 18:07 | 15.01398 | 139.97554 | 32761 ft | 466 kts | 98° |
| 2026-04-13 18:07 | 15.00152 | 140.04129 | 32758 ft | 466 kts | 98° |
| 2026-04-13 18:08 | 14.98914 | 140.10659 | 32751 ft | 466 kts | 98° |
| 2026-04-13 18:08 | 14.97665 | 140.17233 | 32758 ft | 466 kts | 98° |
| 2026-04-13 18:09 | 14.96413 | 140.23807 | 32756 ft | 466 kts | 98° |
| 2026-04-13 18:09 | 14.95158 | 140.30382 | 32744 ft | 466 kts | 98° |
| 2026-04-13 18:10 | 14.93914 | 140.36914 | 32743 ft | 466 kts | 98° |
| 2026-04-13 18:10 | 14.92655 | 140.43492 | 32751 ft | 466 kts | 98° |
| 2026-04-13 18:11 | 14.91394 | 140.50072 | 32749 ft | 467 kts | 98° |
| 2026-04-13 18:11 | 14.90132 | 140.56652 | 32737 ft | 467 kts | 98° |
| 2026-04-13 18:12 | 14.88877 | 140.63179 | 32737 ft | 467 kts | 98° |
| 2026-04-13 18:12 | 14.87609 | 140.69766 | 32744 ft | 467 kts | 98° |
| 2026-04-13 18:13 | 14.86342 | 140.76339 | 32735 ft | 467 kts | 98° |
| 2026-04-13 18:13 | 14.85056 | 140.82917 | 32736 ft | 468 kts | 101° |
| 2026-04-13 18:14 | 14.83038 | 140.89286 | 32733 ft | 471 kts | 107° |
| 2026-04-13 18:14 | 14.80767 | 140.95632 | 32726 ft | 471 kts | 107° |
| 2026-04-13 18:15 | 14.78504 | 141.01984 | 32728 ft | 471 kts | 107° |
| 2026-04-13 18:15 | 14.76272 | 141.08348 | 32720 ft | 471 kts | 107° |
| 2026-04-13 18:16 | 14.74067 | 141.14673 | 32721 ft | 471 kts | 107° |
| 2026-04-13 18:16 | 14.71849 | 141.21036 | 32721 ft | 470 kts | 107° |
| 2026-04-13 18:17 | 14.69630 | 141.27385 | 32713 ft | 469 kts | 107° |
| 2026-04-13 18:17 | 14.67415 | 141.33715 | 32711 ft | 468 kts | 107° |
| 2026-04-13 18:18 | 14.65221 | 141.39980 | 32703 ft | 466 kts | 107° |
| 2026-04-13 18:18 | 14.63018 | 141.46264 | 32702 ft | 465 kts | 107° |
| 2026-04-13 18:19 | 14.60822 | 141.52531 | 32704 ft | 464 kts | 107° |
| 2026-04-13 18:19 | 14.58627 | 141.58785 | 32696 ft | 463 kts | 107° |
| 2026-04-13 18:20 | 14.56442 | 141.64996 | 32694 ft | 464 kts | 107° |
| 2026-04-13 18:20 | 14.54238 | 141.71258 | 32699 ft | 465 kts | 107° |
| 2026-04-13 18:21 | 14.52028 | 141.77537 | 32691 ft | 466 kts | 107° |
| 2026-04-13 18:21 | 14.49810 | 141.83836 | 32692 ft | 468 kts | 107° |
| 2026-04-13 18:22 | 14.47578 | 141.90155 | 32691 ft | 469 kts | 107° |
| 2026-04-13 18:22 | 14.45357 | 141.96440 | 32687 ft | 470 kts | 107° |
| 2026-04-13 18:23 | 14.43116 | 142.02784 | 32681 ft | 471 kts | 107° |
| 2026-04-13 18:23 | 14.40874 | 142.09121 | 32678 ft | 470 kts | 107° |
| 2026-04-13 18:24 | 14.38630 | 142.15456 | 32674 ft | 470 kts | 107° |
| 2026-04-13 18:24 | 14.36398 | 142.21753 | 32666 ft | 471 kts | 107° |
| 2026-04-13 18:25 | 14.34150 | 142.28085 | 32664 ft | 469 kts | 107° |
| 2026-04-13 18:25 | 14.31914 | 142.34376 | 32659 ft | 466 kts | 108° |
| 2026-04-13 18:26 | 14.29690 | 142.40633 | 32658 ft | 464 kts | 107° |
| 2026-04-13 18:26 | 14.27489 | 142.46832 | 32660 ft | 463 kts | 107° |
| 2026-04-13 18:27 | 14.25266 | 142.53075 | 32657 ft | 464 kts | 107° |
| 2026-04-13 18:27 | 14.23035 | 142.59326 | 32655 ft | 465 kts | 108° |
| 2026-04-13 18:28 | 14.20802 | 142.65576 | 32643 ft | 464 kts | 107° |
| 2026-04-13 18:28 | 14.18583 | 142.71789 | 32652 ft | 467 kts | 107° |
| 2026-04-13 18:29 | 14.16331 | 142.78098 | 32651 ft | 471 kts | 107° |
| 2026-04-13 18:29 | 14.14055 | 142.84464 | 32639 ft | 475 kts | 107° |
| 2026-04-13 18:30 | 14.11762 | 142.90864 | 32628 ft | 476 kts | 107° |
| 2026-04-13 18:30 | 14.09469 | 142.97263 | 32634 ft | 477 kts | 107° |
| 2026-04-13 18:31 | 14.07185 | 143.03626 | 32627 ft | 478 kts | 107° |
| 2026-04-13 18:31 | 14.04880 | 143.10044 | 32618 ft | 478 kts | 107° |
| 2026-04-13 18:32 | 14.02877 | 143.16547 | 32620 ft | 475 kts | 101° |
| 2026-04-13 18:32 | 14.01280 | 143.23160 | 32249 ft | 481 kts | 100° |
| 2026-04-13 18:32 | 14.00499 | 143.26477 | 31598 ft | 482 kts | 101° |
| 2026-04-13 18:33 | 13.99702 | 143.29822 | 30875 ft | 482 kts | 100° |
| 2026-04-13 18:33 | 13.98894 | 143.33176 | 30088 ft | 484 kts | 100° |
| 2026-04-13 18:33 | 13.98069 | 143.36550 | 29206 ft | 487 kts | 100° |
| 2026-04-13 18:34 | 13.96390 | 143.43343 | 27438 ft | 490 kts | 100° |
| 2026-04-13 18:34 | 13.95552 | 143.46716 | 26815 ft | 485 kts | 100° |
| 2026-04-13 18:34 | 13.94720 | 143.50063 | 26182 ft | 481 kts | 101° |
| 2026-04-13 18:34 | 13.93903 | 143.53347 | 25552 ft | 478 kts | 100° |
| 2026-04-13 18:35 | 13.93083 | 143.56654 | 24929 ft | 475 kts | 100° |
| 2026-04-13 18:35 | 13.92269 | 143.59935 | 24301 ft | 473 kts | 100° |
| 2026-04-13 18:35 | 13.91456 | 143.63211 | 23681 ft | 471 kts | 100° |
| 2026-04-13 18:35 | 13.90647 | 143.66473 | 23042 ft | 469 kts | 100° |
| 2026-04-13 18:36 | 13.89841 | 143.69716 | 22326 ft | 467 kts | 100° |
| 2026-04-13 18:36 | 13.89039 | 143.72940 | 21695 ft | 463 kts | 99° |
| 2026-04-13 18:36 | 13.88244 | 143.76131 | 21076 ft | 459 kts | 99° |
| 2026-04-13 18:36 | 13.87464 | 143.79259 | 20466 ft | 455 kts | 99° |
| 2026-04-13 18:37 | 13.86934 | 143.81382 | 20058 ft | 453 kts | 99° |
| 2026-04-13 18:37 | 13.85902 | 143.85520 | 19255 ft | 448 kts | 98° |
| 2026-04-13 18:37 | 13.85130 | 143.88616 | 18654 ft | 445 kts | 98° |
| 2026-04-13 18:37 | 13.84362 | 143.91690 | 18053 ft | 442 kts | 98° |
| 2026-04-13 18:38 | 13.83601 | 143.94738 | 17398 ft | 439 kts | 98° |
| 2026-04-13 18:38 | 13.82842 | 143.97777 | 16778 ft | 435 kts | 98° |
| 2026-04-13 18:38 | 13.82092 | 144.00772 | 16180 ft | 430 kts | 98° |
| 2026-04-13 18:38 | 13.81349 | 144.03743 | 15580 ft | 426 kts | 97° |
| 2026-04-13 18:39 | 13.80622 | 144.06643 | 14999 ft | 422 kts | 97° |
| 2026-04-13 18:39 | 13.79894 | 144.09554 | 14418 ft | 419 kts | 97° |
| 2026-04-13 18:39 | 13.79171 | 144.12440 | 13843 ft | 415 kts | 97° |
| 2026-04-13 18:39 | 13.78451 | 144.15313 | 13266 ft | 412 kts | 97° |
| 2026-04-13 18:40 | 13.77739 | 144.18156 | 12656 ft | 409 kts | 97° |
| 2026-04-13 18:40 | 13.77038 | 144.20938 | 12462 ft | 395 kts | 97° |
| 2026-04-13 18:40 | 13.76352 | 144.23657 | 11924 ft | 391 kts | 96° |
| 2026-04-13 18:40 | 13.75676 | 144.26350 | 11423 ft | 387 kts | 96° |
| 2026-04-13 18:41 | 13.75009 | 144.29008 | 11079 ft | 379 kts | 96° |
| 2026-04-13 18:41 | 13.74357 | 144.31589 | 10906 ft | 366 kts | 96° |
| 2026-04-13 18:41 | 13.73726 | 144.34083 | 10735 ft | 355 kts | 95° |
| 2026-04-13 18:41 | 13.73123 | 144.36472 | 10580 ft | 345 kts | 95° |
| 2026-04-13 18:42 | 13.72529 | 144.38824 | 10433 ft | 335 kts | 95° |
| 2026-04-13 18:42 | 13.71955 | 144.41105 | 10285 ft | 325 kts | 94° |
| 2026-04-13 18:42 | 13.71396 | 144.43324 | 10173 ft | 315 kts | 94° |
| 2026-04-13 18:42 | 13.70896 | 144.45303 | 10103 ft | 305 kts | 94° |
| 2026-04-13 18:43 | 13.70372 | 144.47380 | 9943 ft | 298 kts | 93° |
| 2026-04-13 18:43 | 13.69855 | 144.49459 | 9540 ft | 301 kts | 93° |
| 2026-04-13 18:43 | 13.69342 | 144.51521 | 9188 ft | 302 kts | 93° |
| 2026-04-13 18:43 | 13.68824 | 144.53577 | 9078 ft | 292 kts | 93° |
| 2026-04-13 18:44 | 13.68310 | 144.55623 | 8662 ft | 295 kts | 93° |
| 2026-04-13 18:44 | 13.67800 | 144.57646 | 8270 ft | 296 kts | 93° |
| 2026-04-13 18:44 | 13.67288 | 144.59679 | 8104 ft | 289 kts | 93° |
| 2026-04-13 18:44 | 13.66781 | 144.61688 | 7661 ft | 293 kts | 93° |
| 2026-04-13 18:45 | 13.66272 | 144.63707 | 7453 ft | 287 kts | 93° |
| 2026-04-13 18:45 | 13.65770 | 144.65681 | 7037 ft | 286 kts | 92° |
| 2026-04-13 18:45 | 13.65274 | 144.67638 | 6709 ft | 282 kts | 93° |
| 2026-04-13 18:45 | 13.64783 | 144.69579 | 6416 ft | 280 kts | 92° |
| 2026-04-13 18:46 | 13.64295 | 144.71518 | 6113 ft | 281 kts | 92° |
| 2026-04-13 18:46 | 13.63812 | 144.73431 | 5883 ft | 279 kts | 92° |
| 2026-04-13 18:46 | 13.63328 | 144.75335 | 5593 ft | 274 kts | 92° |
| 2026-04-13 18:46 | 13.62849 | 144.77229 | 5199 ft | 273 kts | 92° |
| 2026-04-13 18:47 | 13.62373 | 144.79108 | 4900 ft | 269 kts | 91° |
| 2026-04-13 18:47 | 13.61904 | 144.80953 | 4531 ft | 266 kts | 91° |
| 2026-04-13 18:47 | 13.61441 | 144.82794 | 4123 ft | 266 kts | 91° |
| 2026-04-13 18:47 | 13.60976 | 144.84623 | 3836 ft | 262 kts | 91° |
| 2026-04-13 18:48 | 13.60518 | 144.86415 | 3599 ft | 257 kts | 90° |
| 2026-04-13 18:48 | 13.60077 | 144.88141 | 3449 ft | 249 kts | 90° |
| 2026-04-13 18:48 | 13.59643 | 144.89832 | 3348 ft | 241 kts | 91° |
| 2026-04-13 18:48 | 13.59212 | 144.91469 | 3213 ft | 237 kts | 96° |
| 2026-04-13 18:49 | 13.58258 | 144.92954 | 3053 ft | 267 kts | 133° |
| 2026-04-13 18:49 | 13.56522 | 144.93740 | 2809 ft | 283 kts | 173° |
| 2026-04-13 18:49 | 13.54618 | 144.93445 | 2664 ft | 273 kts | 213° |
| 2026-04-13 18:49 | 13.53308 | 144.92230 | 2689 ft | 242 kts | 251° |
| 2026-04-13 18:50 | 13.52922 | 144.90622 | 2283 ft | 225 kts | 283° |
| 2026-04-13 18:50 | 13.52649 | 144.89057 | 1976 ft | 238 kts | 255° |
| 2026-04-13 18:50 | 13.51814 | 144.87625 | 1665 ft | 220 kts | 261° |
| 2026-04-13 18:50 | 13.51276 | 144.86232 | 1436 ft | 207 kts | 259° |
| 2026-04-13 18:51 | 13.50665 | 144.84932 | 1148 ft | 197 kts | 259° |
| 2026-04-13 18:51 | 13.50116 | 144.83730 | 902 ft | 176 kts | 262° |
| 2026-04-13 18:51 | 13.49657 | 144.82632 | 686 ft | 157 kts | 260° |
| 2026-04-13 18:51 | 13.49139 | 144.81724 | 623 ft | 137 kts | 258° |
| 2026-04-13 18:52 | 13.48778 | 144.80851 | 424 ft | 133 kts | 261° |
| 2026-04-13 18:52 | 13.48425 | 144.79997 | 452 ft | 130 kts | 261° |
| 2026-04-13 18:52 | 13.48018 | 144.79113 | 714 ft | 155 kts | 259° |
| 2026-04-13 18:52 | 13.47519 | 144.77968 | 970 ft | 189 kts | 258° |
| 2026-04-13 18:53 | 13.46899 | 144.76650 | 1282 ft | 222 kts | 255° |
| 2026-04-13 18:53 | 13.46210 | 144.75176 | 1719 ft | 236 kts | 258° |
| 2026-04-13 18:53 | 13.45497 | 144.73631 | 2287 ft | 245 kts | 257° |
| 2026-04-13 18:53 | 13.44751 | 144.72003 | 2695 ft | 255 kts | 251° |
| 2026-04-13 18:54 | 13.43977 | 144.70287 | 2844 ft | 277 kts | 258° |
| 2026-04-13 18:54 | 13.43143 | 144.68451 | 2823 ft | 284 kts | 256° |
| 2026-04-13 18:54 | 13.42289 | 144.66613 | 2911 ft | 290 kts | 255° |
| 2026-04-13 18:54 | 13.41430 | 144.64752 | 2883 ft | 294 kts | 257° |
| 2026-04-13 18:55 | 13.40926 | 144.62835 | 2911 ft | 266 kts | 278° |
| 2026-04-13 18:55 | 13.40480 | 144.60949 | 2904 ft | 286 kts | 253° |
| 2026-04-13 18:55 | 13.39490 | 144.59170 | 2920 ft | 286 kts | 251° |
| 2026-04-13 18:55 | 13.38722 | 144.57371 | 2934 ft | 263 kts | 263° |
| 2026-04-13 18:56 | 13.38343 | 144.55675 | 2906 ft | 220 kts | 289° |
| 2026-04-13 18:56 | 13.38903 | 144.54424 | 2923 ft | 184 kts | 330° |
| 2026-04-13 18:56 | 13.40108 | 144.53914 | 2935 ft | 198 kts | 346° |
| 2026-04-13 18:56 | 13.41422 | 144.53503 | 2931 ft | 199 kts | 351° |
| 2026-04-13 18:57 | 13.42776 | 144.53339 | 2921 ft | 193 kts | 1° |
| 2026-04-13 18:57 | 13.44085 | 144.53558 | 2924 ft | 191 kts | 15° |
| 2026-04-13 18:57 | 13.45262 | 144.54200 | 2918 ft | 195 kts | 29° |
| 2026-04-13 18:57 | 13.46237 | 144.55246 | 2923 ft | 211 kts | 45° |
| 2026-04-13 18:58 | 13.46879 | 144.56654 | 2931 ft | 224 kts | 60° |
| 2026-04-13 18:58 | 13.47079 | 144.58296 | 2909 ft | 247 kts | 82° |
| 2026-04-13 18:58 | 13.46703 | 144.60071 | 2929 ft | 258 kts | 91° |
| 2026-04-13 18:58 | 13.46244 | 144.61846 | 2924 ft | 253 kts | 91° |
| 2026-04-13 18:59 | 13.45806 | 144.63470 | 2956 ft | 222 kts | 91° |
| 2026-04-13 18:59 | 13.45411 | 144.64934 | 2750 ft | 206 kts | 88° |
| 2026-04-13 18:59 | 13.45050 | 144.66308 | 2545 ft | 193 kts | 86° |
| 2026-04-13 18:59 | 13.44714 | 144.67581 | 2308 ft | 178 kts | 85° |
| 2026-04-13 19:00 | 13.44508 | 144.68357 | 2270 ft | 161 kts | 86° |
| 2026-04-13 19:00 | 13.44261 | 144.69792 | 2041 ft | 143 kts | 67° |
| 2026-04-13 19:00 | 13.44507 | 144.70658 | 1900 ft | 121 kts | 45° |
| 2026-04-13 19:00 | 13.44795 | 144.71454 | 1713 ft | 113 kts | 49° |
| 2026-04-13 19:01 | 13.45092 | 144.72216 | 1618 ft | 121 kts | 46° |
| 2026-04-13 19:01 | 13.45423 | 144.73025 | 1479 ft | 124 kts | 47° |
| 2026-04-13 19:01 | 13.45801 | 144.73847 | 1308 ft | 129 kts | 41° |
| 2026-04-13 19:01 | 13.46215 | 144.74668 | 1040 ft | 131 kts | 47° |
| 2026-04-13 19:02 | 13.46524 | 144.75514 | 804 ft | 122 kts | 49° |
| 2026-04-13 19:02 | 13.46898 | 144.76323 | 741 ft | 130 kts | 47° |
| 2026-04-13 19:02 | 13.47335 | 144.77158 | 612 ft | 141 kts | 53° |
| 2026-04-13 19:02 | 13.47735 | 144.78084 | 458 ft | 144 kts | 47° |
| 2026-04-13 19:03 | 13.48127 | 144.78971 | 314 ft | 122 kts | 50° |
| 2026-04-13 19:03 | 13.48442 | 144.79659 | 283 ft | 73 kts | 43° |
| 2026-04-13 19:03 | 13.48548 | 144.79829 | 286 ft | 7 kts | 63° |
| 2026-04-13 19:03 | 13.48578 | 144.79894 | 287 ft | 15 kts | 65° |
| 2026-04-13 19:04 | 13.48633 | 144.80014 | 292 ft | 20 kts | 59° |
| 2026-04-13 19:04 | 13.48748 | 144.80034 | 295 ft | 13 kts | 359° |
| 2026-04-13 19:04 | 13.48787 | 144.80070 | 297 ft | 8 kts | 63° |
| 2026-04-13 19:04 | 13.48810 | 144.80128 | 298 ft | 10 kts | 69° |
| 2026-04-13 19:05 | 13.48838 | 144.80196 | 298 ft | 11 kts | 63° |
| 2026-04-13 19:05 | 13.48870 | 144.80264 | 299 ft | 10 kts | 64° |
| 2026-04-13 19:05 | 13.48907 | 144.80330 | 295 ft | 11 kts | 59° |
| 2026-04-13 19:05 | 13.48959 | 144.80392 | 295 ft | 12 kts | 38° |
| 2026-04-13 19:06 | 13.49018 | 144.80450 | 298 ft | 12 kts | 58° |
| 2026-04-13 19:06 | 13.49052 | 144.80502 | 298 ft | 3 kts | 38° |
| 2026-04-13 19:06 | 13.49075 | 144.80499 | 296 ft | 3 kts | 337° |
| 2026-04-13 19:06 | 13.49096 | 144.80487 | 296 ft | 3 kts | 331° |
| 2026-04-13 19:07 | 13.49117 | 144.80476 | 297 ft | 3 kts | 332° |
| 2026-04-13 19:07 | 13.49138 | 144.80465 | 296 ft | 0 kts | 332° |